TimeCDT,TemperatureF,Dew PointF,Humidity,Sea Level PressureIn,VisibilityMPH,Wind Direction,Wind SpeedMPH,Gust SpeedMPH,PrecipitationIn,Events,Conditions,WindDirDegrees,DateUTC
12:54 AM,54.0,46.0,75,29.78,10.0,NNW,9.2,-,N/A,,Overcast,330,2013-05-22 05:54:00
1:54 AM,53.1,46.0,77,29.79,10.0,NW,9.2,-,N/A,,Overcast,320,2013-05-22 06:54:00
2:27 AM,51.8,46.4,82,29.80,10.0,NW,11.5,-,N/A,,Overcast,310,2013-05-22 07:27:00
2:54 AM,52.0,46.0,80,29.79,10.0,WNW,13.8,-,N/A,,Overcast,290,2013-05-22 07:54:00
3:39 AM,51.8,46.4,82,29.79,10.0,WNW,12.7,-,N/A,,Overcast,300,2013-05-22 08:39:00
3:54 AM,50.0,46.9,89,29.78,10.0,WNW,10.4,-,N/A,,Overcast,300,2013-05-22 08:54:00
4:29 AM,51.8,46.4,82,29.78,10.0,WNW,10.4,-,N/A,,Overcast,300,2013-05-22 09:29:00
4:54 AM,50.0,46.0,86,29.78,10.0,WNW,11.5,-,N/A,,Mostly Cloudy,300,2013-05-22 09:54:00
5:40 AM,51.8,46.4,82,29.78,10.0,NW,16.1,23.0,N/A,,Overcast,310,2013-05-22 10:40:00
5:54 AM,50.0,46.0,86,29.78,10.0,WNW,12.7,-,N/A,,Overcast,300,2013-05-22 10:54:00
6:54 AM,51.1,46.0,83,29.78,10.0,NW,15.0,23.0,N/A,,Overcast,310,2013-05-22 11:54:00
7:54 AM,52.0,46.9,83,29.80,10.0,WNW,15.0,-,N/A,,Overcast,300,2013-05-22 12:54:00
8:22 AM,51.8,46.4,82,29.82,10.0,WNW,13.8,-,N/A,,Overcast,300,2013-05-22 13:22:00
8:52 AM,53.6,46.4,77,29.82,10.0,NW,18.4,-,N/A,,Overcast,320,2013-05-22 13:52:00
8:54 AM,53.1,46.9,80,29.82,10.0,NW,17.3,24.2,N/A,,Overcast,310,2013-05-22 13:54:00
9:54 AM,55.0,46.9,74,29.83,10.0,NW,16.1,23.0,N/A,,Overcast,310,2013-05-22 14:54:00
10:18 AM,55.4,46.4,72,29.85,10.0,WNW,13.8,-,N/A,,Overcast,300,2013-05-22 15:18:00
10:54 AM,55.9,46.9,72,29.85,10.0,NW,12.7,-,N/A,,Overcast,320,2013-05-22 15:54:00
11:50 AM,53.6,51.8,94,29.88,2.5,WNW,15.0,-,0.00,Rain,Light Rain,300,2013-05-22 16:50:00
11:54 AM,53.1,51.1,93,29.88,2.5,WNW,12.7,-,0.00,Rain,Light Rain,300,2013-05-22 16:54:00
11:56 AM,53.6,51.8,94,29.88,3.0,WNW,13.8,-,0.00,Rain,Light Rain,300,2013-05-22 16:56:00
12:03 PM,53.6,51.8,94,29.88,5.0,NW,10.4,-,0.00,Rain,Light Rain,310,2013-05-22 17:03:00
12:54 PM,55.9,48.0,75,29.88,10.0,NW,16.1,19.6,0.00,,Overcast,310,2013-05-22 17:54:00
1:43 PM,59.0,46.4,63,29.86,10.0,NW,17.3,21.9,N/A,,Overcast,320,2013-05-22 18:43:00
1:54 PM,59.0,46.9,64,29.86,10.0,NW,16.1,-,N/A,,Overcast,310,2013-05-22 18:54:00
2:54 PM,61.0,48.0,62,29.86,10.0,NW,15.0,21.9,N/A,,Overcast,320,2013-05-22 19:54:00
3:04 PM,60.8,48.2,63,29.87,10.0,WNW,16.1,-,N/A,,Overcast,300,2013-05-22 20:04:00
3:54 PM,61.0,46.9,60,29.86,10.0,NNW,18.4,-,N/A,,Overcast,330,2013-05-22 20:54:00
4:54 PM,61.0,46.9,60,29.87,10.0,NNW,13.8,-,N/A,,Overcast,330,2013-05-22 21:54:00
5:54 PM,61.0,46.9,60,29.89,10.0,NW,12.7,-,N/A,,Overcast,320,2013-05-22 22:54:00
6:54 PM,60.1,46.9,62,29.90,10.0,NNW,12.7,-,N/A,,Overcast,340,2013-05-22 23:54:00
7:54 PM,60.1,48.0,64,29.92,10.0,NW,10.4,-,N/A,,Overcast,320,2013-05-23 00:54:00
8:54 PM,57.0,48.9,74,29.95,10.0,North,12.7,-,N/A,,Overcast,350,2013-05-23 01:54:00
9:54 PM,57.0,46.9,69,29.97,10.0,NNW,13.8,-,N/A,,Overcast,340,2013-05-23 02:54:00
10:54 PM,55.9,48.0,75,30.00,10.0,NW,6.9,-,N/A,,Overcast,320,2013-05-23 03:54:00
11:34 PM,55.4,48.2,77,30.01,10.0,NNW,9.2,-,N/A,,Overcast,340,2013-05-23 04:34:00
11:54 PM,55.0,48.0,77,30.02,10.0,NW,8.1,-,N/A,,Overcast,320,2013-05-23 04:54:00